sensor_id;sensor_type;location;lat;lon;timestamp;temperature;humidity
33827;DHT22;20128;45.582;5.298;2023-01-05T00:02:23;10.20;91.50
33827;DHT22;20128;45.582;5.298;2023-01-05T00:04:48;10.20;91.40
33827;DHT22;20128;45.582;5.298;2023-01-05T00:07:14;10.20;91.40
33827;DHT22;20128;45.582;5.298;2023-01-05T00:09:40;10.20;91.40
33827;DHT22;20128;45.582;5.298;2023-01-05T00:12:05;10.20;91.40
33827;DHT22;20128;45.582;5.298;2023-01-05T00:14:49;10.20;91.30
33827;DHT22;20128;45.582;5.298;2023-01-05T00:17:34;10.30;91.30
33827;DHT22;20128;45.582;5.298;2023-01-05T00:20:19;10.30;91.30
33827;DHT22;20128;45.582;5.298;2023-01-05T00:23:04;10.30;91.30
33827;DHT22;20128;45.582;5.298;2023-01-05T00:25:35;10.30;91.30
33827;DHT22;20128;45.582;5.298;2023-01-05T00:28:01;10.30;91.40
33827;DHT22;20128;45.582;5.298;2023-01-05T00:30:38;10.30;91.40
33827;DHT22;20128;45.582;5.298;2023-01-05T00:33:10;10.30;91.50
33827;DHT22;20128;45.582;5.298;2023-01-05T00:35:37;10.30;91.50
33827;DHT22;20128;45.582;5.298;2023-01-05T00:38:03;10.30;91.50
33827;DHT22;20128;45.582;5.298;2023-01-05T00:40:29;10.40;91.50
33827;DHT22;20128;45.582;5.298;2023-01-05T00:42:55;10.40;91.50
33827;DHT22;20128;45.582;5.298;2023-01-05T00:45:21;10.40;91.50
33827;DHT22;20128;45.582;5.298;2023-01-05T00:47:47;10.40;91.70
33827;DHT22;20128;45.582;5.298;2023-01-05T00:50:15;10.40;91.50
33827;DHT22;20128;45.582;5.298;2023-01-05T00:52:43;10.40;91.50
33827;DHT22;20128;45.582;5.298;2023-01-05T00:55:09;10.40;91.50
33827;DHT22;20128;45.582;5.298;2023-01-05T00:57:35;10.40;91.50
33827;DHT22;20128;45.582;5.298;2023-01-05T01:00:02;10.40;91.50
33827;DHT22;20128;45.582;5.298;2023-01-05T01:02:28;10.40;91.50
33827;DHT22;20128;45.582;5.298;2023-01-05T01:04:54;10.40;91.40
33827;DHT22;20128;45.582;5.298;2023-01-05T01:07:19;10.40;91.50
33827;DHT22;20128;45.582;5.298;2023-01-05T01:09:45;10.40;91.50
33827;DHT22;20128;45.582;5.298;2023-01-05T01:12:11;10.40;91.40
33827;DHT22;20128;45.582;5.298;2023-01-05T01:14:38;10.40;91.50
33827;DHT22;20128;45.582;5.298;2023-01-05T01:17:04;10.40;91.60
33827;DHT22;20128;45.582;5.298;2023-01-05T01:19:30;10.50;91.60
33827;DHT22;20128;45.582;5.298;2023-01-05T01:21:55;10.40;91.60
33827;DHT22;20128;45.582;5.298;2023-01-05T01:24:23;10.40;91.70
33827;DHT22;20128;45.582;5.298;2023-01-05T01:26:49;10.40;91.60
33827;DHT22;20128;45.582;5.298;2023-01-05T01:29:15;10.30;91.60
33827;DHT22;20128;45.582;5.298;2023-01-05T01:31:42;10.30;91.70
33827;DHT22;20128;45.582;5.298;2023-01-05T01:34:08;10.30;91.70
33827;DHT22;20128;45.582;5.298;2023-01-05T01:36:34;10.30;91.70
33827;DHT22;20128;45.582;5.298;2023-01-05T01:38:59;10.30;91.70
33827;DHT22;20128;45.582;5.298;2023-01-05T01:41:25;10.30;91.70
33827;DHT22;20128;45.582;5.298;2023-01-05T01:43:53;10.30;91.70
33827;DHT22;20128;45.582;5.298;2023-01-05T01:46:21;10.40;91.80
33827;DHT22;20128;45.582;5.298;2023-01-05T01:49:07;10.40;91.70
33827;DHT22;20128;45.582;5.298;2023-01-05T01:51:40;10.40;91.80
33827;DHT22;20128;45.582;5.298;2023-01-05T01:54:11;10.40;91.80
33827;DHT22;20128;45.582;5.298;2023-01-05T01:56:41;10.40;91.80
33827;DHT22;20128;45.582;5.298;2023-01-05T01:59:09;10.40;91.80
33827;DHT22;20128;45.582;5.298;2023-01-05T02:01:35;10.40;91.80
33827;DHT22;20128;45.582;5.298;2023-01-05T02:04:03;10.40;91.80
33827;DHT22;20128;45.582;5.298;2023-01-05T02:06:29;10.40;91.90
33827;DHT22;20128;45.582;5.298;2023-01-05T02:08:55;10.50;91.90
33827;DHT22;20128;45.582;5.298;2023-01-05T02:11:46;10.50;91.90
33827;DHT22;20128;45.582;5.298;2023-01-05T02:25:57;10.40;92.00
33827;DHT22;20128;45.582;5.298;2023-01-05T02:31:13;10.50;92.00
33827;DHT22;20128;45.582;5.298;2023-01-05T02:36:35;10.40;91.90
33827;DHT22;20128;45.582;5.298;2023-01-05T02:39:18;10.50;92.00
33827;DHT22;20128;45.582;5.298;2023-01-05T02:42:00;10.40;91.90
33827;DHT22;20128;45.582;5.298;2023-01-05T02:44:30;10.40;92.00
33827;DHT22;20128;45.582;5.298;2023-01-05T02:47:46;10.40;92.00
33827;DHT22;20128;45.582;5.298;2023-01-05T02:49:47;10.40;92.00
33827;DHT22;20128;45.582;5.298;2023-01-05T02:52:13;10.40;92.10
33827;DHT22;20128;45.582;5.298;2023-01-05T02:54:45;10.40;92.10
33827;DHT22;20128;45.582;5.298;2023-01-05T02:57:28;10.50;92.20
33827;DHT22;20128;45.582;5.298;2023-01-05T03:00:20;10.50;92.20
33827;DHT22;20128;45.582;5.298;2023-01-05T03:02:48;10.50;92.20
33827;DHT22;20128;45.582;5.298;2023-01-05T03:05:22;10.40;92.20
33827;DHT22;20128;45.582;5.298;2023-01-05T03:07:50;10.50;92.30
33827;DHT22;20128;45.582;5.298;2023-01-05T03:10:16;10.50;92.30
33827;DHT22;20128;45.582;5.298;2023-01-05T03:13:04;10.50;92.30
33827;DHT22;20128;45.582;5.298;2023-01-05T03:15:50;10.50;92.30
33827;DHT22;20128;45.582;5.298;2023-01-05T03:18:18;10.60;92.40
33827;DHT22;20128;45.582;5.298;2023-01-05T03:20:47;10.60;92.40
33827;DHT22;20128;45.582;5.298;2023-01-05T03:23:16;10.60;92.40
33827;DHT22;20128;45.582;5.298;2023-01-05T03:26:00;10.60;92.40
33827;DHT22;20128;45.582;5.298;2023-01-05T03:28:49;10.60;92.40
33827;DHT22;20128;45.582;5.298;2023-01-05T03:31:47;10.60;92.30
33827;DHT22;20128;45.582;5.298;2023-01-05T03:37:42;10.60;92.40
33827;DHT22;20128;45.582;5.298;2023-01-05T03:40:14;10.50;92.40
33827;DHT22;20128;45.582;5.298;2023-01-05T03:42:42;10.60;92.40
33827;DHT22;20128;45.582;5.298;2023-01-05T03:45:09;10.60;92.40
33827;DHT22;20128;45.582;5.298;2023-01-05T03:47:35;10.60;92.40
33827;DHT22;20128;45.582;5.298;2023-01-05T03:50:01;10.60;92.40
33827;DHT22;20128;45.582;5.298;2023-01-05T03:52:26;10.60;92.40
33827;DHT22;20128;45.582;5.298;2023-01-05T03:54:52;10.60;92.40
33827;DHT22;20128;45.582;5.298;2023-01-05T03:57:18;10.60;92.40
33827;DHT22;20128;45.582;5.298;2023-01-05T03:59:43;10.60;92.40
33827;DHT22;20128;45.582;5.298;2023-01-05T04:02:09;10.60;92.50
33827;DHT22;20128;45.582;5.298;2023-01-05T04:04:35;10.60;92.40
33827;DHT22;20128;45.582;5.298;2023-01-05T04:07:00;10.60;92.40
33827;DHT22;20128;45.582;5.298;2023-01-05T04:09:26;10.60;92.50
33827;DHT22;20128;45.582;5.298;2023-01-05T04:11:51;10.60;92.50
33827;DHT22;20128;45.582;5.298;2023-01-05T04:14:17;10.60;92.50
33827;DHT22;20128;45.582;5.298;2023-01-05T04:16:43;10.60;92.50
33827;DHT22;20128;45.582;5.298;2023-01-05T04:19:09;10.60;92.80
33827;DHT22;20128;45.582;5.298;2023-01-05T04:21:35;10.60;92.50
33827;DHT22;20128;45.582;5.298;2023-01-05T04:24:00;10.60;92.40
33827;DHT22;20128;45.582;5.298;2023-01-05T04:26:26;10.60;92.50
33827;DHT22;20128;45.582;5.298;2023-01-05T04:28:52;10.60;92.50
33827;DHT22;20128;45.582;5.298;2023-01-05T04:31:17;10.60;92.60
33827;DHT22;20128;45.582;5.298;2023-01-05T04:33:43;10.60;92.60
33827;DHT22;20128;45.582;5.298;2023-01-05T04:36:10;10.50;92.60
33827;DHT22;20128;45.582;5.298;2023-01-05T04:38:35;10.50;92.60
33827;DHT22;20128;45.582;5.298;2023-01-05T04:41:01;10.60;92.70
33827;DHT22;20128;45.582;5.298;2023-01-05T04:43:27;10.60;92.70
33827;DHT22;20128;45.582;5.298;2023-01-05T04:45:53;10.60;92.80
33827;DHT22;20128;45.582;5.298;2023-01-05T04:48:18;10.60;92.80
33827;DHT22;20128;45.582;5.298;2023-01-05T04:50:44;10.60;92.80
33827;DHT22;20128;45.582;5.298;2023-01-05T04:53:10;10.50;92.80
33827;DHT22;20128;45.582;5.298;2023-01-05T04:55:35;10.60;92.90
33827;DHT22;20128;45.582;5.298;2023-01-05T04:58:01;10.60;92.90
33827;DHT22;20128;45.582;5.298;2023-01-05T05:00:27;10.60;92.90
33827;DHT22;20128;45.582;5.298;2023-01-05T05:02:55;10.60;92.90
33827;DHT22;20128;45.582;5.298;2023-01-05T05:05:20;10.60;93.00
33827;DHT22;20128;45.582;5.298;2023-01-05T05:07:46;10.60;93.00
33827;DHT22;20128;45.582;5.298;2023-01-05T05:10:11;10.60;93.00
33827;DHT22;20128;45.582;5.298;2023-01-05T05:12:40;10.60;93.00
33827;DHT22;20128;45.582;5.298;2023-01-05T05:15:06;10.60;93.10
33827;DHT22;20128;45.582;5.298;2023-01-05T05:17:32;10.60;93.10
33827;DHT22;20128;45.582;5.298;2023-01-05T05:19:57;10.50;93.10
33827;DHT22;20128;45.582;5.298;2023-01-05T05:22:23;10.60;93.20
33827;DHT22;20128;45.582;5.298;2023-01-05T05:24:49;10.50;93.30
33827;DHT22;20128;45.582;5.298;2023-01-05T05:27:15;10.50;93.40
33827;DHT22;20128;45.582;5.298;2023-01-05T05:29:40;10.50;93.40
33827;DHT22;20128;45.582;5.298;2023-01-05T05:32:06;10.50;93.40
33827;DHT22;20128;45.582;5.298;2023-01-05T05:34:31;10.50;93.50
33827;DHT22;20128;45.582;5.298;2023-01-05T05:36:57;10.40;93.90
33827;DHT22;20128;45.582;5.298;2023-01-05T05:39:23;10.30;93.80
33827;DHT22;20128;45.582;5.298;2023-01-05T05:41:48;10.30;93.90
33827;DHT22;20128;45.582;5.298;2023-01-05T05:44:14;10.30;94.00
33827;DHT22;20128;45.582;5.298;2023-01-05T05:46:40;10.20;94.10
33827;DHT22;20128;45.582;5.298;2023-01-05T05:49:05;10.20;94.20
33827;DHT22;20128;45.582;5.298;2023-01-05T05:51:33;10.20;94.30
33827;DHT22;20128;45.582;5.298;2023-01-05T05:53:59;10.20;94.40
33827;DHT22;20128;45.582;5.298;2023-01-05T05:56:25;10.20;94.50
33827;DHT22;20128;45.582;5.298;2023-01-05T05:58:50;10.20;94.70
33827;DHT22;20128;45.582;5.298;2023-01-05T06:01:16;10.10;94.70
33827;DHT22;20128;45.582;5.298;2023-01-05T06:03:41;10.10;94.90
33827;DHT22;20128;45.582;5.298;2023-01-05T06:06:07;10.10;94.90
33827;DHT22;20128;45.582;5.298;2023-01-05T06:08:33;10.20;95.00
33827;DHT22;20128;45.582;5.298;2023-01-05T06:10:59;10.10;95.00
33827;DHT22;20128;45.582;5.298;2023-01-05T06:13:24;10.10;95.10
33827;DHT22;20128;45.582;5.298;2023-01-05T06:15:50;10.10;95.30
33827;DHT22;20128;45.582;5.298;2023-01-05T06:18:16;10.10;95.40
33827;DHT22;20128;45.582;5.298;2023-01-05T06:20:42;10.10;95.40
33827;DHT22;20128;45.582;5.298;2023-01-05T06:23:08;10.00;95.40
33827;DHT22;20128;45.582;5.298;2023-01-05T06:25:34;10.10;95.50
33827;DHT22;20128;45.582;5.298;2023-01-05T06:28:00;10.10;95.60
33827;DHT22;20128;45.582;5.298;2023-01-05T06:30:26;10.10;95.60
33827;DHT22;20128;45.582;5.298;2023-01-05T06:32:51;10.10;95.70
33827;DHT22;20128;45.582;5.298;2023-01-05T06:35:17;10.10;95.70
33827;DHT22;20128;45.582;5.298;2023-01-05T06:37:43;10.10;95.70
33827;DHT22;20128;45.582;5.298;2023-01-05T06:40:09;10.10;95.70
33827;DHT22;20128;45.582;5.298;2023-01-05T06:42:36;10.10;95.80
33827;DHT22;20128;45.582;5.298;2023-01-05T06:45:03;10.10;95.80
33827;DHT22;20128;45.582;5.298;2023-01-05T06:47:29;10.10;95.80
33827;DHT22;20128;45.582;5.298;2023-01-05T06:49:55;10.10;95.90
33827;DHT22;20128;45.582;5.298;2023-01-05T06:52:20;10.10;95.90
33827;DHT22;20128;45.582;5.298;2023-01-05T06:54:46;10.00;96.00
33827;DHT22;20128;45.582;5.298;2023-01-05T06:57:12;10.10;96.10
33827;DHT22;20128;45.582;5.298;2023-01-05T06:59:38;10.10;96.10
33827;DHT22;20128;45.582;5.298;2023-01-05T07:02:04;10.10;96.10
33827;DHT22;20128;45.582;5.298;2023-01-05T07:04:29;10.20;96.10
33827;DHT22;20128;45.582;5.298;2023-01-05T07:06:55;10.20;96.10
33827;DHT22;20128;45.582;5.298;2023-01-05T07:09:21;10.10;96.10
33827;DHT22;20128;45.582;5.298;2023-01-05T07:11:47;10.10;96.10
33827;DHT22;20128;45.582;5.298;2023-01-05T07:14:12;10.10;96.20
33827;DHT22;20128;45.582;5.298;2023-01-05T07:16:38;10.10;96.30
33827;DHT22;20128;45.582;5.298;2023-01-05T07:19:04;10.10;96.20
33827;DHT22;20128;45.582;5.298;2023-01-05T07:21:29;10.10;96.30
33827;DHT22;20128;45.582;5.298;2023-01-05T07:23:55;10.10;96.30
33827;DHT22;20128;45.582;5.298;2023-01-05T07:26:20;10.20;96.30
33827;DHT22;20128;45.582;5.298;2023-01-05T07:28:46;10.20;96.30
33827;DHT22;20128;45.582;5.298;2023-01-05T07:31:12;10.30;96.30
33827;DHT22;20128;45.582;5.298;2023-01-05T07:33:38;10.30;96.30
33827;DHT22;20128;45.582;5.298;2023-01-05T07:36:04;10.30;96.30
33827;DHT22;20128;45.582;5.298;2023-01-05T07:38:32;10.30;96.30
33827;DHT22;20128;45.582;5.298;2023-01-05T07:41:00;10.40;96.30
33827;DHT22;20128;45.582;5.298;2023-01-05T07:43:26;10.40;96.30
33827;DHT22;20128;45.582;5.298;2023-01-05T07:45:56;10.40;96.30
33827;DHT22;20128;45.582;5.298;2023-01-05T07:48:22;10.40;96.30
33827;DHT22;20128;45.582;5.298;2023-01-05T07:50:48;10.40;96.30
33827;DHT22;20128;45.582;5.298;2023-01-05T07:53:13;10.40;96.30
33827;DHT22;20128;45.582;5.298;2023-01-05T07:55:39;10.50;96.30
33827;DHT22;20128;45.582;5.298;2023-01-05T07:58:05;10.50;96.30
33827;DHT22;20128;45.582;5.298;2023-01-05T08:00:30;10.50;96.30
33827;DHT22;20128;45.582;5.298;2023-01-05T08:02:56;10.50;96.20
33827;DHT22;20128;45.582;5.298;2023-01-05T08:05:21;10.50;96.20
33827;DHT22;20128;45.582;5.298;2023-01-05T08:07:47;10.50;96.20
33827;DHT22;20128;45.582;5.298;2023-01-05T08:10:13;10.50;96.20
33827;DHT22;20128;45.582;5.298;2023-01-05T08:12:53;10.60;96.30
33827;DHT22;20128;45.582;5.298;2023-01-05T08:15:38;10.50;96.60
33827;DHT22;20128;45.582;5.298;2023-01-05T08:18:04;10.60;96.30
33827;DHT22;20128;45.582;5.298;2023-01-05T08:20:30;10.60;96.30
33827;DHT22;20128;45.582;5.298;2023-01-05T08:22:55;10.60;96.30
33827;DHT22;20128;45.582;5.298;2023-01-05T08:25:21;10.60;96.30
33827;DHT22;20128;45.582;5.298;2023-01-05T08:27:47;10.60;96.30
33827;DHT22;20128;45.582;5.298;2023-01-05T08:30:13;10.60;96.30
33827;DHT22;20128;45.582;5.298;2023-01-05T08:32:39;10.60;96.30
33827;DHT22;20128;45.582;5.298;2023-01-05T08:35:05;10.60;96.30
33827;DHT22;20128;45.582;5.298;2023-01-05T08:37:31;10.60;96.30
33827;DHT22;20128;45.582;5.298;2023-01-05T08:39:57;10.70;96.30
33827;DHT22;20128;45.582;5.298;2023-01-05T08:42:23;10.70;96.30
33827;DHT22;20128;45.582;5.298;2023-01-05T08:44:48;10.70;96.40
33827;DHT22;20128;45.582;5.298;2023-01-05T08:47:14;10.60;96.40
33827;DHT22;20128;45.582;5.298;2023-01-05T08:49:40;10.70;96.40
33827;DHT22;20128;45.582;5.298;2023-01-05T08:52:06;10.70;96.40
33827;DHT22;20128;45.582;5.298;2023-01-05T08:54:33;10.70;96.50
33827;DHT22;20128;45.582;5.298;2023-01-05T08:56:59;10.70;96.50
33827;DHT22;20128;45.582;5.298;2023-01-05T08:59:24;10.70;96.50
33827;DHT22;20128;45.582;5.298;2023-01-05T09:01:50;10.70;96.60
33827;DHT22;20128;45.582;5.298;2023-01-05T09:04:16;10.70;96.60
33827;DHT22;20128;45.582;5.298;2023-01-05T09:06:41;10.70;96.60
33827;DHT22;20128;45.582;5.298;2023-01-05T09:09:07;10.70;96.70
33827;DHT22;20128;45.582;5.298;2023-01-05T09:11:33;10.70;96.70
33827;DHT22;20128;45.582;5.298;2023-01-05T09:14:00;10.80;96.70
33827;DHT22;20128;45.582;5.298;2023-01-05T09:16:31;10.80;96.70
33827;DHT22;20128;45.582;5.298;2023-01-05T09:18:58;10.80;96.70
33827;DHT22;20128;45.582;5.298;2023-01-05T09:21:25;10.80;96.60
33827;DHT22;20128;45.582;5.298;2023-01-05T09:23:50;10.80;96.70
33827;DHT22;20128;45.582;5.298;2023-01-05T09:26:16;10.90;96.80
33827;DHT22;20128;45.582;5.298;2023-01-05T09:28:43;10.90;96.80
33827;DHT22;20128;45.582;5.298;2023-01-05T09:31:11;10.90;96.80
33827;DHT22;20128;45.582;5.298;2023-01-05T09:33:38;10.90;96.80
33827;DHT22;20128;45.582;5.298;2023-01-05T09:36:04;10.90;96.80
33827;DHT22;20128;45.582;5.298;2023-01-05T09:38:30;11.00;96.80
33827;DHT22;20128;45.582;5.298;2023-01-05T09:41:07;11.00;96.80
33827;DHT22;20128;45.582;5.298;2023-01-05T09:43:40;11.00;96.80
33827;DHT22;20128;45.582;5.298;2023-01-05T09:46:20;11.10;96.90
33827;DHT22;20128;45.582;5.298;2023-01-05T09:48:50;11.10;96.90
33827;DHT22;20128;45.582;5.298;2023-01-05T09:51:16;11.10;96.90
33827;DHT22;20128;45.582;5.298;2023-01-05T09:53:42;11.10;96.90
33827;DHT22;20128;45.582;5.298;2023-01-05T09:56:35;11.10;96.90
33827;DHT22;20128;45.582;5.298;2023-01-05T09:59:17;11.20;96.90
33827;DHT22;20128;45.582;5.298;2023-01-05T10:01:45;11.20;96.90
33827;DHT22;20128;45.582;5.298;2023-01-05T10:04:17;11.20;96.90
33827;DHT22;20128;45.582;5.298;2023-01-05T10:06:45;11.20;96.90
33827;DHT22;20128;45.582;5.298;2023-01-05T10:09:27;11.20;96.90
33827;DHT22;20128;45.582;5.298;2023-01-05T10:15:52;11.30;97.20
33827;DHT22;20128;45.582;5.298;2023-01-05T10:18:24;11.30;97.20
33827;DHT22;20128;45.582;5.298;2023-01-05T10:21:14;11.30;97.50
33827;DHT22;20128;45.582;5.298;2023-01-05T10:29:12;11.30;97.40
33827;DHT22;20128;45.582;5.298;2023-01-05T10:31:45;11.30;97.40
33827;DHT22;20128;45.582;5.298;2023-01-05T10:34:21;11.30;97.40
33827;DHT22;20128;45.582;5.298;2023-01-05T10:37:06;11.30;97.50
33827;DHT22;20128;45.582;5.298;2023-01-05T10:40:17;11.30;97.60
33827;DHT22;20128;45.582;5.298;2023-01-05T10:45:17;11.30;97.70
33827;DHT22;20128;45.582;5.298;2023-01-05T10:47:44;11.30;97.60
33827;DHT22;20128;45.582;5.298;2023-01-05T10:50:30;11.30;97.60
33827;DHT22;20128;45.582;5.298;2023-01-05T10:53:11;11.40;97.70
33827;DHT22;20128;45.582;5.298;2023-01-05T10:55:46;11.40;97.70
33827;DHT22;20128;45.582;5.298;2023-01-05T10:58:40;11.40;97.70
33827;DHT22;20128;45.582;5.298;2023-01-05T11:03:43;11.40;97.80
33827;DHT22;20128;45.582;5.298;2023-01-05T11:06:28;11.40;97.80
33827;DHT22;20128;45.582;5.298;2023-01-05T11:11:31;11.40;97.90
33827;DHT22;20128;45.582;5.298;2023-01-05T11:13:57;11.40;98.00
33827;DHT22;20128;45.582;5.298;2023-01-05T11:16:32;11.50;98.00
33827;DHT22;20128;45.582;5.298;2023-01-05T11:19:10;11.50;98.20
33827;DHT22;20128;45.582;5.298;2023-01-05T11:24:28;11.50;98.00
33827;DHT22;20128;45.582;5.298;2023-01-05T11:27:02;11.50;98.00
33827;DHT22;20128;45.582;5.298;2023-01-05T11:29:37;11.50;98.10
33827;DHT22;20128;45.582;5.298;2023-01-05T11:32:05;11.50;98.40
33827;DHT22;20128;45.582;5.298;2023-01-05T11:34:42;11.60;98.10
33827;DHT22;20128;45.582;5.298;2023-01-05T11:37:22;11.60;98.20
33827;DHT22;20128;45.582;5.298;2023-01-05T11:42:32;11.60;98.20
33827;DHT22;20128;45.582;5.298;2023-01-05T11:45:05;11.60;98.30
33827;DHT22;20128;45.582;5.298;2023-01-05T11:47:38;11.60;98.30
33827;DHT22;20128;45.582;5.298;2023-01-05T11:52:41;11.70;98.40
33827;DHT22;20128;45.582;5.298;2023-01-05T11:57:50;11.70;98.70
33827;DHT22;20128;45.582;5.298;2023-01-05T12:00:59;11.70;98.50
33827;DHT22;20128;45.582;5.298;2023-01-05T12:12:25;11.80;98.60
33827;DHT22;20128;45.582;5.298;2023-01-05T12:20:55;11.90;98.70
33827;DHT22;20128;45.582;5.298;2023-01-05T12:26:19;12.00;98.60
33827;DHT22;20128;45.582;5.298;2023-01-05T12:28:55;12.00;98.60
33827;DHT22;20128;45.582;5.298;2023-01-05T12:46:02;12.10;98.50
33827;DHT22;20128;45.582;5.298;2023-01-05T12:48:33;12.10;98.50
33827;DHT22;20128;45.582;5.298;2023-01-05T12:51:23;12.10;98.50
33827;DHT22;20128;45.582;5.298;2023-01-05T12:53:58;12.10;98.50
33827;DHT22;20128;45.582;5.298;2023-01-05T12:56:29;12.10;98.50
33827;DHT22;20128;45.582;5.298;2023-01-05T13:01:33;12.10;98.20
33827;DHT22;20128;45.582;5.298;2023-01-05T13:06:54;12.20;98.20
33827;DHT22;20128;45.582;5.298;2023-01-05T13:09:22;12.20;98.10
33827;DHT22;20128;45.582;5.298;2023-01-05T13:11:58;12.20;98.20
33827;DHT22;20128;45.582;5.298;2023-01-05T13:14:30;12.30;98.30
33827;DHT22;20128;45.582;5.298;2023-01-05T13:19:49;12.30;98.10
33827;DHT22;20128;45.582;5.298;2023-01-05T13:22:28;12.40;98.10
33827;DHT22;20128;45.582;5.298;2023-01-05T13:24:59;12.30;98.10
33827;DHT22;20128;45.582;5.298;2023-01-05T13:27:25;12.40;98.10
33827;DHT22;20128;45.582;5.298;2023-01-05T13:29:54;12.30;98.10
33827;DHT22;20128;45.582;5.298;2023-01-05T13:40:47;12.30;97.90
33827;DHT22;20128;45.582;5.298;2023-01-05T13:54:16;12.40;98.10
33827;DHT22;20128;45.582;5.298;2023-01-05T13:56:43;12.40;98.10
33827;DHT22;20128;45.582;5.298;2023-01-05T13:59:30;12.40;98.10
33827;DHT22;20128;45.582;5.298;2023-01-05T14:01:57;12.50;98.10
33827;DHT22;20128;45.582;5.298;2023-01-05T14:04:26;12.50;97.90
33827;DHT22;20128;45.582;5.298;2023-01-05T14:07:03;12.50;97.60
33827;DHT22;20128;45.582;5.298;2023-01-05T14:09:33;12.50;97.70
33827;DHT22;20128;45.582;5.298;2023-01-05T14:39:01;12.40;97.80
33827;DHT22;20128;45.582;5.298;2023-01-05T14:41:28;12.40;97.80
33827;DHT22;20128;45.582;5.298;2023-01-05T14:44:04;12.40;97.70
33827;DHT22;20128;45.582;5.298;2023-01-05T14:46:50;12.40;97.60
33827;DHT22;20128;45.582;5.298;2023-01-05T14:49:36;12.40;97.60
33827;DHT22;20128;45.582;5.298;2023-01-05T14:52:06;12.40;97.50
33827;DHT22;20128;45.582;5.298;2023-01-05T15:02:31;12.40;97.10
33827;DHT22;20128;45.582;5.298;2023-01-05T15:05:05;12.40;97.20
33827;DHT22;20128;45.582;5.298;2023-01-05T15:11:08;12.40;97.10
33827;DHT22;20128;45.582;5.298;2023-01-05T15:25:37;12.30;97.00
33827;DHT22;20128;45.582;5.298;2023-01-05T15:31:26;12.30;97.00
33827;DHT22;20128;45.582;5.298;2023-01-05T15:36:46;12.30;97.00
33827;DHT22;20128;45.582;5.298;2023-01-05T15:39:28;12.20;97.00
33827;DHT22;20128;45.582;5.298;2023-01-05T15:41:57;12.20;97.00
33827;DHT22;20128;45.582;5.298;2023-01-05T15:44:29;12.20;97.10
33827;DHT22;20128;45.582;5.298;2023-01-05T15:46:55;12.20;97.10
33827;DHT22;20128;45.582;5.298;2023-01-05T15:49:27;12.20;97.10
33827;DHT22;20128;45.582;5.298;2023-01-05T15:51:55;12.20;97.10
33827;DHT22;20128;45.582;5.298;2023-01-05T15:54:24;12.20;97.10
33827;DHT22;20128;45.582;5.298;2023-01-05T15:56:51;12.20;97.10
33827;DHT22;20128;45.582;5.298;2023-01-05T15:59:33;12.20;97.10
33827;DHT22;20128;45.582;5.298;2023-01-05T16:04:43;12.20;96.90
33827;DHT22;20128;45.582;5.298;2023-01-05T16:07:09;12.20;96.90
33827;DHT22;20128;45.582;5.298;2023-01-05T16:09:38;12.10;96.90
33827;DHT22;20128;45.582;5.298;2023-01-05T16:12:16;12.10;96.90
33827;DHT22;20128;45.582;5.298;2023-01-05T16:14:59;12.10;96.90
33827;DHT22;20128;45.582;5.298;2023-01-05T16:17:30;12.10;97.00
33827;DHT22;20128;45.582;5.298;2023-01-05T16:20:08;12.10;96.90
33827;DHT22;20128;45.582;5.298;2023-01-05T16:25:24;12.10;96.90
33827;DHT22;20128;45.582;5.298;2023-01-05T16:27:58;12.10;96.90
33827;DHT22;20128;45.582;5.298;2023-01-05T16:30:33;12.10;97.20
33827;DHT22;20128;45.582;5.298;2023-01-05T16:35:51;12.10;97.00
33827;DHT22;20128;45.582;5.298;2023-01-05T16:38:27;12.00;97.10
33827;DHT22;20128;45.582;5.298;2023-01-05T16:43:40;12.00;97.10
33827;DHT22;20128;45.582;5.298;2023-01-05T16:51:17;12.10;97.20
33827;DHT22;20128;45.582;5.298;2023-01-05T16:53:47;12.10;97.20
33827;DHT22;20128;45.582;5.298;2023-01-05T16:59:00;12.10;97.10
33827;DHT22;20128;45.582;5.298;2023-01-05T17:01:34;12.10;97.00
33827;DHT22;20128;45.582;5.298;2023-01-05T17:04:10;12.20;97.00
33827;DHT22;20128;45.582;5.298;2023-01-05T17:06:36;12.20;97.00
33827;DHT22;20128;45.582;5.298;2023-01-05T17:09:06;12.20;96.90
33827;DHT22;20128;45.582;5.298;2023-01-05T17:11:35;12.10;96.80
33827;DHT22;20128;45.582;5.298;2023-01-05T17:14:01;12.10;96.80
33827;DHT22;20128;45.582;5.298;2023-01-05T17:16:29;12.20;96.80
33827;DHT22;20128;45.582;5.298;2023-01-05T17:18:54;12.10;96.80
33827;DHT22;20128;45.582;5.298;2023-01-05T17:21:26;12.10;96.70
33827;DHT22;20128;45.582;5.298;2023-01-05T17:23:57;12.10;96.70
33827;DHT22;20128;45.582;5.298;2023-01-05T17:26:33;12.10;96.70
33827;DHT22;20128;45.582;5.298;2023-01-05T17:29:01;12.10;96.60
33827;DHT22;20128;45.582;5.298;2023-01-05T17:31:27;12.10;96.60
33827;DHT22;20128;45.582;5.298;2023-01-05T17:33:53;12.10;96.50
33827;DHT22;20128;45.582;5.298;2023-01-05T17:36:21;12.10;96.50
33827;DHT22;20128;45.582;5.298;2023-01-05T17:38:49;12.20;96.50
33827;DHT22;20128;45.582;5.298;2023-01-05T17:41:15;12.10;96.40
33827;DHT22;20128;45.582;5.298;2023-01-05T17:43:40;12.10;96.30
33827;DHT22;20128;45.582;5.298;2023-01-05T17:46:07;12.10;96.20
33827;DHT22;20128;45.582;5.298;2023-01-05T17:48:33;12.20;96.20
33827;DHT22;20128;45.582;5.298;2023-01-05T17:50:59;12.20;96.20
33827;DHT22;20128;45.582;5.298;2023-01-05T17:53:24;12.20;96.30
33827;DHT22;20128;45.582;5.298;2023-01-05T17:55:50;12.20;96.30
33827;DHT22;20128;45.582;5.298;2023-01-05T17:58:16;12.20;96.40
33827;DHT22;20128;45.582;5.298;2023-01-05T18:00:41;12.10;96.40
33827;DHT22;20128;45.582;5.298;2023-01-05T18:03:14;12.20;96.40
33827;DHT22;20128;45.582;5.298;2023-01-05T18:05:44;12.10;96.40
33827;DHT22;20128;45.582;5.298;2023-01-05T18:08:10;12.10;96.40
33827;DHT22;20128;45.582;5.298;2023-01-05T18:10:38;12.10;96.40
33827;DHT22;20128;45.582;5.298;2023-01-05T18:13:05;12.20;96.50
33827;DHT22;20128;45.582;5.298;2023-01-05T18:15:31;12.20;96.50
33827;DHT22;20128;45.582;5.298;2023-01-05T18:17:58;12.10;96.40
33827;DHT22;20128;45.582;5.298;2023-01-05T18:20:24;12.20;96.30
33827;DHT22;20128;45.582;5.298;2023-01-05T18:22:49;12.20;96.30
33827;DHT22;20128;45.582;5.298;2023-01-05T18:25:16;12.20;96.30
33827;DHT22;20128;45.582;5.298;2023-01-05T18:27:42;12.10;96.30
33827;DHT22;20128;45.582;5.298;2023-01-05T18:30:08;12.20;96.30
33827;DHT22;20128;45.582;5.298;2023-01-05T18:32:35;12.20;96.30
33827;DHT22;20128;45.582;5.298;2023-01-05T18:35:01;12.10;96.30
33827;DHT22;20128;45.582;5.298;2023-01-05T18:37:26;12.10;96.30
33827;DHT22;20128;45.582;5.298;2023-01-05T18:39:52;12.10;96.30
33827;DHT22;20128;45.582;5.298;2023-01-05T18:42:17;12.10;96.20
33827;DHT22;20128;45.582;5.298;2023-01-05T18:44:43;12.10;96.50
33827;DHT22;20128;45.582;5.298;2023-01-05T18:47:09;12.00;96.40
33827;DHT22;20128;45.582;5.298;2023-01-05T18:49:34;12.00;96.40